sensor_id;sensor_type;location;lat;lon;timestamp;P1;durP1;ratioP1;P2;durP2;ratioP2
27543;SDS011;17996;51.056;3.656;2022-11-27T00:01:59;14.10;;;8.35;;
27543;SDS011;17996;51.056;3.656;2022-11-27T00:04:25;18.15;;;8.80;;
27543;SDS011;17996;51.056;3.656;2022-11-27T00:06:51;17.45;;;8.10;;
27543;SDS011;17996;51.056;3.656;2022-11-27T00:09:17;16.73;;;8.43;;
27543;SDS011;17996;51.056;3.656;2022-11-27T00:11:44;15.00;;;8.30;;
27543;SDS011;17996;51.056;3.656;2022-11-27T00:14:11;15.70;;;8.55;;
27543;SDS011;17996;51.056;3.656;2022-11-27T00:16:38;15.98;;;7.82;;
27543;SDS011;17996;51.056;3.656;2022-11-27T00:19:03;13.48;;;7.57;;
27543;SDS011;17996;51.056;3.656;2022-11-27T00:21:31;16.50;;;7.35;;
27543;SDS011;17996;51.056;3.656;2022-11-27T00:23:58;19.30;;;8.00;;
27543;SDS011;17996;51.056;3.656;2022-11-27T00:26:26;16.27;;;7.85;;
27543;SDS011;17996;51.056;3.656;2022-11-27T00:28:53;20.35;;;8.80;;
27543;SDS011;17996;51.056;3.656;2022-11-27T00:31:21;12.02;;;6.97;;
27543;SDS011;17996;51.056;3.656;2022-11-27T00:33:53;10.55;;;6.68;;
27543;SDS011;17996;51.056;3.656;2022-11-27T00:36:23;12.93;;;7.40;;
27543;SDS011;17996;51.056;3.656;2022-11-27T00:38:49;11.65;;;7.25;;
27543;SDS011;17996;51.056;3.656;2022-11-27T00:41:16;15.15;;;7.25;;
27543;SDS011;17996;51.056;3.656;2022-11-27T00:46:13;14.75;;;7.70;;
27543;SDS011;17996;51.056;3.656;2022-11-27T00:48:39;17.67;;;7.85;;
27543;SDS011;17996;51.056;3.656;2022-11-27T00:51:06;15.07;;;7.00;;
27543;SDS011;17996;51.056;3.656;2022-11-27T00:53:33;11.80;;;6.25;;
27543;SDS011;17996;51.056;3.656;2022-11-27T00:55:58;15.13;;;6.90;;
27543;SDS011;17996;51.056;3.656;2022-11-27T00:58:25;12.30;;;6.00;;
27543;SDS011;17996;51.056;3.656;2022-11-27T01:00:57;12.55;;;6.60;;
27543;SDS011;17996;51.056;3.656;2022-11-27T01:03:29;12.93;;;7.05;;
27543;SDS011;17996;51.056;3.656;2022-11-27T01:05:56;12.77;;;6.22;;
27543;SDS011;17996;51.056;3.656;2022-11-27T01:08:25;12.63;;;6.95;;
27543;SDS011;17996;51.056;3.656;2022-11-27T01:10:52;11.57;;;7.32;;
27543;SDS011;17996;51.056;3.656;2022-11-27T01:13:21;17.02;;;7.57;;
27543;SDS011;17996;51.056;3.656;2022-11-27T01:16:02;16.40;;;7.38;;
27543;SDS011;17996;51.056;3.656;2022-11-27T01:18:30;18.42;;;7.43;;
27543;SDS011;17996;51.056;3.656;2022-11-27T01:20:57;13.80;;;7.40;;
27543;SDS011;17996;51.056;3.656;2022-11-27T01:23:22;18.23;;;7.30;;
27543;SDS011;17996;51.056;3.656;2022-11-27T01:25:48;16.65;;;7.93;;
27543;SDS011;17996;51.056;3.656;2022-11-27T01:28:16;16.92;;;7.45;;
27543;SDS011;17996;51.056;3.656;2022-11-27T01:30:43;19.33;;;7.85;;
27543;SDS011;17996;51.056;3.656;2022-11-27T01:33:09;16.17;;;7.28;;
27543;SDS011;17996;51.056;3.656;2022-11-27T01:35:35;18.65;;;6.90;;
27543;SDS011;17996;51.056;3.656;2022-11-27T01:38:00;22.60;;;8.40;;
27543;SDS011;17996;51.056;3.656;2022-11-27T01:40:26;18.70;;;7.65;;
27543;SDS011;17996;51.056;3.656;2022-11-27T01:42:52;15.32;;;7.40;;
27543;SDS011;17996;51.056;3.656;2022-11-27T01:45:18;15.32;;;7.03;;
27543;SDS011;17996;51.056;3.656;2022-11-27T01:47:50;17.45;;;7.22;;
27543;SDS011;17996;51.056;3.656;2022-11-27T01:50:22;19.55;;;7.07;;
27543;SDS011;17996;51.056;3.656;2022-11-27T01:52:54;17.92;;;6.75;;
27543;SDS011;17996;51.056;3.656;2022-11-27T01:58:18;13.63;;;7.00;;
27543;SDS011;17996;51.056;3.656;2022-11-27T02:00:48;23.73;;;7.38;;
27543;SDS011;17996;51.056;3.656;2022-11-27T02:03:14;23.88;;;7.20;;
27543;SDS011;17996;51.056;3.656;2022-11-27T02:05:40;21.33;;;6.63;;
27543;SDS011;17996;51.056;3.656;2022-11-27T02:08:07;21.10;;;7.28;;
27543;SDS011;17996;51.056;3.656;2022-11-27T02:10:43;16.15;;;6.43;;
27543;SDS011;17996;51.056;3.656;2022-11-27T02:16:03;19.08;;;6.75;;
27543;SDS011;17996;51.056;3.656;2022-11-27T02:29:28;15.18;;;5.68;;
27543;SDS011;17996;51.056;3.656;2022-11-27T02:34:51;14.35;;;5.35;;
27543;SDS011;17996;51.056;3.656;2022-11-27T02:40:16;19.13;;;5.78;;
27543;SDS011;17996;51.056;3.656;2022-11-27T02:45:24;19.70;;;5.80;;
27543;SDS011;17996;51.056;3.656;2022-11-27T02:47:59;18.35;;;5.80;;
27543;SDS011;17996;51.056;3.656;2022-11-27T02:50:26;16.92;;;6.30;;
27543;SDS011;17996;51.056;3.656;2022-11-27T02:52:56;21.20;;;6.05;;
27543;SDS011;17996;51.056;3.656;2022-11-27T02:55:29;18.45;;;5.60;;
27543;SDS011;17996;51.056;3.656;2022-11-27T02:57:58;19.13;;;5.57;;
27543;SDS011;17996;51.056;3.656;2022-11-27T03:00:26;19.63;;;5.45;;
27543;SDS011;17996;51.056;3.656;2022-11-27T03:02:58;19.95;;;6.22;;
27543;SDS011;17996;51.056;3.656;2022-11-27T03:05:28;17.33;;;5.43;;
27543;SDS011;17996;51.056;3.656;2022-11-27T03:13:18;26.90;;;6.28;;
27543;SDS011;17996;51.056;3.656;2022-11-27T03:15:58;12.82;;;4.82;;
27543;SDS011;17996;51.056;3.656;2022-11-27T03:24:12;16.75;;;5.15;;
27543;SDS011;17996;51.056;3.656;2022-11-27T03:26:38;16.52;;;5.07;;
27543;SDS011;17996;51.056;3.656;2022-11-27T03:29:06;20.38;;;6.28;;
27543;SDS011;17996;51.056;3.656;2022-11-27T03:31:35;17.58;;;5.75;;
27543;SDS011;17996;51.056;3.656;2022-11-27T03:34:02;20.08;;;5.30;;
27543;SDS011;17996;51.056;3.656;2022-11-27T03:36:30;17.10;;;5.22;;
27543;SDS011;17996;51.056;3.656;2022-11-27T03:38:56;19.92;;;5.20;;
27543;SDS011;17996;51.056;3.656;2022-11-27T03:52:50;18.02;;;6.22;;
27543;SDS011;17996;51.056;3.656;2022-11-27T04:00:59;15.52;;;5.00;;
27543;SDS011;17996;51.056;3.656;2022-11-27T04:03:28;25.13;;;5.65;;
27543;SDS011;17996;51.056;3.656;2022-11-27T04:05:55;23.83;;;5.65;;
27543;SDS011;17996;51.056;3.656;2022-11-27T04:08:21;18.65;;;5.13;;
27543;SDS011;17996;51.056;3.656;2022-11-27T04:13:16;23.02;;;4.68;;
27543;SDS011;17996;51.056;3.656;2022-11-27T04:15:41;17.48;;;4.75;;
27543;SDS011;17996;51.056;3.656;2022-11-27T04:18:07;18.27;;;4.32;;
27543;SDS011;17996;51.056;3.656;2022-11-27T04:20:33;14.40;;;4.63;;
27543;SDS011;17996;51.056;3.656;2022-11-27T04:22:59;13.93;;;3.97;;
27543;SDS011;17996;51.056;3.656;2022-11-27T04:25:24;17.42;;;4.78;;
27543;SDS011;17996;51.056;3.656;2022-11-27T04:27:50;14.68;;;3.78;;
27543;SDS011;17996;51.056;3.656;2022-11-27T04:30:16;12.90;;;3.83;;
27543;SDS011;17996;51.056;3.656;2022-11-27T04:32:42;13.27;;;3.65;;
27543;SDS011;17996;51.056;3.656;2022-11-27T04:35:08;17.45;;;3.63;;
27543;SDS011;17996;51.056;3.656;2022-11-27T04:37:34;14.80;;;4.22;;
27543;SDS011;17996;51.056;3.656;2022-11-27T04:40:00;16.77;;;3.90;;
27543;SDS011;17996;51.056;3.656;2022-11-27T04:42:26;19.50;;;4.35;;
27543;SDS011;17996;51.056;3.656;2022-11-27T04:44:52;19.20;;;5.20;;
27543;SDS011;17996;51.056;3.656;2022-11-27T04:47:18;8.93;;;3.58;;
27543;SDS011;17996;51.056;3.656;2022-11-27T04:49:44;11.57;;;3.72;;
27543;SDS011;17996;51.056;3.656;2022-11-27T04:52:16;16.00;;;3.67;;
27543;SDS011;17996;51.056;3.656;2022-11-27T04:54:42;13.70;;;3.90;;
27543;SDS011;17996;51.056;3.656;2022-11-27T04:57:08;14.20;;;3.70;;
27543;SDS011;17996;51.056;3.656;2022-11-27T04:59:35;14.27;;;3.65;;
27543;SDS011;17996;51.056;3.656;2022-11-27T05:02:00;17.45;;;3.40;;
27543;SDS011;17996;51.056;3.656;2022-11-27T05:04:26;12.48;;;4.22;;
27543;SDS011;17996;51.056;3.656;2022-11-27T05:06:51;15.20;;;3.83;;
27543;SDS011;17996;51.056;3.656;2022-11-27T05:09:17;12.80;;;4.07;;
27543;SDS011;17996;51.056;3.656;2022-11-27T05:11:43;18.15;;;4.20;;
27543;SDS011;17996;51.056;3.656;2022-11-27T05:14:09;10.15;;;3.53;;
27543;SDS011;17996;51.056;3.656;2022-11-27T05:16:44;14.45;;;3.85;;
27543;SDS011;17996;51.056;3.656;2022-11-27T05:19:15;13.07;;;3.60;;
27543;SDS011;17996;51.056;3.656;2022-11-27T05:21:42;9.33;;;4.10;;
27543;SDS011;17996;51.056;3.656;2022-11-27T05:24:09;14.75;;;3.58;;
27543;SDS011;17996;51.056;3.656;2022-11-27T05:26:36;11.25;;;3.65;;
27543;SDS011;17996;51.056;3.656;2022-11-27T05:29:03;14.88;;;3.50;;
27543;SDS011;17996;51.056;3.656;2022-11-27T05:31:29;10.50;;;3.55;;
27543;SDS011;17996;51.056;3.656;2022-11-27T05:33:55;18.73;;;4.18;;
27543;SDS011;17996;51.056;3.656;2022-11-27T05:36:21;9.05;;;3.83;;
27543;SDS011;17996;51.056;3.656;2022-11-27T05:38:47;14.13;;;3.40;;
27543;SDS011;17996;51.056;3.656;2022-11-27T05:41:13;9.77;;;3.50;;
27543;SDS011;17996;51.056;3.656;2022-11-27T05:43:39;15.02;;;3.38;;
27543;SDS011;17996;51.056;3.656;2022-11-27T05:46:06;16.35;;;4.32;;
27543;SDS011;17996;51.056;3.656;2022-11-27T05:48:33;13.18;;;4.40;;
27543;SDS011;17996;51.056;3.656;2022-11-27T05:50:59;11.27;;;4.03;;
27543;SDS011;17996;51.056;3.656;2022-11-27T05:53:25;15.77;;;4.57;;
27543;SDS011;17996;51.056;3.656;2022-11-27T05:55:51;12.02;;;4.03;;
27543;SDS011;17996;51.056;3.656;2022-11-27T05:58:17;11.70;;;3.80;;
27543;SDS011;17996;51.056;3.656;2022-11-27T06:00:43;10.65;;;3.90;;
27543;SDS011;17996;51.056;3.656;2022-11-27T06:03:09;14.60;;;3.70;;
27543;SDS011;17996;51.056;3.656;2022-11-27T06:05:38;16.35;;;4.28;;
27543;SDS011;17996;51.056;3.656;2022-11-27T06:08:04;11.88;;;4.45;;
27543;SDS011;17996;51.056;3.656;2022-11-27T06:10:30;15.68;;;3.67;;
27543;SDS011;17996;51.056;3.656;2022-11-27T06:12:56;12.80;;;3.95;;
27543;SDS011;17996;51.056;3.656;2022-11-27T06:15:21;10.82;;;4.10;;
27543;SDS011;17996;51.056;3.656;2022-11-27T06:17:47;17.42;;;4.30;;
27543;SDS011;17996;51.056;3.656;2022-11-27T06:20:13;12.13;;;4.00;;
27543;SDS011;17996;51.056;3.656;2022-11-27T06:22:39;9.32;;;4.10;;
27543;SDS011;17996;51.056;3.656;2022-11-27T06:25:05;10.63;;;3.95;;
27543;SDS011;17996;51.056;3.656;2022-11-27T06:27:32;14.40;;;3.88;;
27543;SDS011;17996;51.056;3.656;2022-11-27T06:29:58;8.93;;;3.67;;
27543;SDS011;17996;51.056;3.656;2022-11-27T06:32:24;17.48;;;4.88;;
27543;SDS011;17996;51.056;3.656;2022-11-27T06:34:50;19.08;;;4.55;;
27543;SDS011;17996;51.056;3.656;2022-11-27T06:37:15;18.35;;;4.45;;
27543;SDS011;17996;51.056;3.656;2022-11-27T06:39:41;9.65;;;3.90;;
27543;SDS011;17996;51.056;3.656;2022-11-27T06:42:07;14.30;;;4.45;;
27543;SDS011;17996;51.056;3.656;2022-11-27T06:44:32;9.70;;;4.70;;
27543;SDS011;17996;51.056;3.656;2022-11-27T06:46:58;12.35;;;4.57;;
27543;SDS011;17996;51.056;3.656;2022-11-27T06:49:24;12.93;;;4.22;;
27543;SDS011;17996;51.056;3.656;2022-11-27T06:51:49;10.57;;;4.25;;
27543;SDS011;17996;51.056;3.656;2022-11-27T06:54:15;12.50;;;4.53;;
27543;SDS011;17996;51.056;3.656;2022-11-27T06:56:40;17.13;;;6.20;;
27543;SDS011;17996;51.056;3.656;2022-11-27T06:59:06;13.13;;;4.25;;
27543;SDS011;17996;51.056;3.656;2022-11-27T07:01:32;16.90;;;5.30;;
27543;SDS011;17996;51.056;3.656;2022-11-27T07:03:58;14.57;;;4.28;;
27543;SDS011;17996;51.056;3.656;2022-11-27T07:06:24;19.00;;;5.07;;
27543;SDS011;17996;51.056;3.656;2022-11-27T07:08:51;20.60;;;5.13;;
27543;SDS011;17996;51.056;3.656;2022-11-27T07:11:19;14.15;;;4.50;;
27543;SDS011;17996;51.056;3.656;2022-11-27T07:13:47;10.50;;;4.70;;
27543;SDS011;17996;51.056;3.656;2022-11-27T07:16:14;10.70;;;5.22;;
27543;SDS011;17996;51.056;3.656;2022-11-27T07:18:41;17.35;;;5.55;;
27543;SDS011;17996;51.056;3.656;2022-11-27T07:21:09;13.50;;;5.57;;
27543;SDS011;17996;51.056;3.656;2022-11-27T07:23:35;15.80;;;4.93;;
27543;SDS011;17996;51.056;3.656;2022-11-27T07:26:10;16.65;;;5.18;;
27543;SDS011;17996;51.056;3.656;2022-11-27T07:28:35;12.18;;;4.72;;
27543;SDS011;17996;51.056;3.656;2022-11-27T07:31:01;16.67;;;6.18;;
27543;SDS011;17996;51.056;3.656;2022-11-27T07:33:27;11.20;;;4.78;;
27543;SDS011;17996;51.056;3.656;2022-11-27T07:35:57;12.70;;;4.95;;
27543;SDS011;17996;51.056;3.656;2022-11-27T07:38:24;14.15;;;5.85;;
27543;SDS011;17996;51.056;3.656;2022-11-27T07:40:49;13.35;;;5.57;;
27543;SDS011;17996;51.056;3.656;2022-11-27T07:43:15;13.80;;;5.15;;
27543;SDS011;17996;51.056;3.656;2022-11-27T07:45:41;13.73;;;4.57;;
27543;SDS011;17996;51.056;3.656;2022-11-27T07:48:06;13.93;;;5.13;;
27543;SDS011;17996;51.056;3.656;2022-11-27T07:50:33;11.85;;;5.40;;
27543;SDS011;17996;51.056;3.656;2022-11-27T07:52:59;11.90;;;5.47;;
27543;SDS011;17996;51.056;3.656;2022-11-27T07:55:24;18.45;;;5.45;;
27543;SDS011;17996;51.056;3.656;2022-11-27T07:57:50;13.38;;;5.15;;
27543;SDS011;17996;51.056;3.656;2022-11-27T08:00:16;16.02;;;5.50;;
27543;SDS011;17996;51.056;3.656;2022-11-27T08:02:41;11.30;;;4.93;;
27543;SDS011;17996;51.056;3.656;2022-11-27T08:05:07;14.80;;;5.80;;
27543;SDS011;17996;51.056;3.656;2022-11-27T08:07:33;12.60;;;5.35;;
27543;SDS011;17996;51.056;3.656;2022-11-27T08:09:59;11.95;;;5.40;;
27543;SDS011;17996;51.056;3.656;2022-11-27T08:12:24;12.88;;;6.35;;
27543;SDS011;17996;51.056;3.656;2022-11-27T08:14:51;12.25;;;5.65;;
27543;SDS011;17996;51.056;3.656;2022-11-27T08:17:17;11.02;;;5.63;;
27543;SDS011;17996;51.056;3.656;2022-11-27T08:19:43;14.93;;;5.82;;
27543;SDS011;17996;51.056;3.656;2022-11-27T08:22:15;17.88;;;6.70;;
27543;SDS011;17996;51.056;3.656;2022-11-27T08:24:41;14.63;;;6.03;;
27543;SDS011;17996;51.056;3.656;2022-11-27T08:27:10;13.85;;;5.72;;
27543;SDS011;17996;51.056;3.656;2022-11-27T08:29:36;9.05;;;4.82;;
27543;SDS011;17996;51.056;3.656;2022-11-27T08:32:04;14.15;;;6.38;;
27543;SDS011;17996;51.056;3.656;2022-11-27T08:34:30;18.63;;;7.20;;
27543;SDS011;17996;51.056;3.656;2022-11-27T08:36:56;13.23;;;6.88;;
27543;SDS011;17996;51.056;3.656;2022-11-27T08:39:22;14.68;;;5.75;;
27543;SDS011;17996;51.056;3.656;2022-11-27T08:41:47;11.10;;;4.60;;
27543;SDS011;17996;51.056;3.656;2022-11-27T08:44:13;16.40;;;5.90;;
27543;SDS011;17996;51.056;3.656;2022-11-27T08:46:39;16.08;;;6.18;;
27543;SDS011;17996;51.056;3.656;2022-11-27T08:49:04;16.67;;;5.93;;
27543;SDS011;17996;51.056;3.656;2022-11-27T08:51:36;13.70;;;6.75;;
27543;SDS011;17996;51.056;3.656;2022-11-27T08:54:01;14.85;;;5.45;;
27543;SDS011;17996;51.056;3.656;2022-11-27T08:56:27;10.10;;;5.40;;
27543;SDS011;17996;51.056;3.656;2022-11-27T08:58:53;16.52;;;5.80;;
27543;SDS011;17996;51.056;3.656;2022-11-27T09:01:22;14.90;;;5.60;;
27543;SDS011;17996;51.056;3.656;2022-11-27T09:03:55;14.48;;;6.03;;
27543;SDS011;17996;51.056;3.656;2022-11-27T09:06:22;14.98;;;6.13;;
27543;SDS011;17996;51.056;3.656;2022-11-27T09:08:49;13.10;;;6.72;;
27543;SDS011;17996;51.056;3.656;2022-11-27T09:11:17;15.15;;;6.68;;
27543;SDS011;17996;51.056;3.656;2022-11-27T09:13:44;16.60;;;6.07;;
27543;SDS011;17996;51.056;3.656;2022-11-27T09:16:12;15.90;;;6.78;;
27543;SDS011;17996;51.056;3.656;2022-11-27T09:18:39;15.80;;;6.30;;
27543;SDS011;17996;51.056;3.656;2022-11-27T09:21:08;17.35;;;7.22;;
27543;SDS011;17996;51.056;3.656;2022-11-27T09:23:35;14.05;;;5.60;;
27543;SDS011;17996;51.056;3.656;2022-11-27T09:26:04;15.07;;;6.57;;
27543;SDS011;17996;51.056;3.656;2022-11-27T09:28:35;12.88;;;6.57;;
27543;SDS011;17996;51.056;3.656;2022-11-27T09:31:02;10.43;;;6.15;;
27543;SDS011;17996;51.056;3.656;2022-11-27T09:33:29;10.95;;;6.30;;
27543;SDS011;17996;51.056;3.656;2022-11-27T09:35:56;13.73;;;6.40;;
27543;SDS011;17996;51.056;3.656;2022-11-27T09:38:22;12.43;;;6.90;;
27543;SDS011;17996;51.056;3.656;2022-11-27T09:40:49;13.00;;;6.72;;
27543;SDS011;17996;51.056;3.656;2022-11-27T09:43:19;12.55;;;6.22;;
27543;SDS011;17996;51.056;3.656;2022-11-27T09:45:53;13.38;;;6.80;;
27543;SDS011;17996;51.056;3.656;2022-11-27T09:48:40;16.10;;;7.05;;
27543;SDS011;17996;51.056;3.656;2022-11-27T09:51:14;12.77;;;6.63;;
27543;SDS011;17996;51.056;3.656;2022-11-27T09:54:15;18.52;;;6.53;;
27543;SDS011;17996;51.056;3.656;2022-11-27T09:56:42;10.25;;;5.30;;
27543;SDS011;17996;51.056;3.656;2022-11-27T09:59:14;17.15;;;7.53;;
27543;SDS011;17996;51.056;3.656;2022-11-27T10:01:42;11.15;;;6.18;;
27543;SDS011;17996;51.056;3.656;2022-11-27T10:04:10;13.23;;;6.60;;
27543;SDS011;17996;51.056;3.656;2022-11-27T10:20:42;14.45;;;7.07;;
27543;SDS011;17996;51.056;3.656;2022-11-27T10:26:19;14.57;;;7.45;;
27543;SDS011;17996;51.056;3.656;2022-11-27T10:28:54;19.63;;;7.50;;
27543;SDS011;17996;51.056;3.656;2022-11-27T10:31:36;12.55;;;6.40;;
27543;SDS011;17996;51.056;3.656;2022-11-27T10:37:16;14.13;;;6.90;;
27543;SDS011;17996;51.056;3.656;2022-11-27T10:39:47;15.60;;;7.75;;
27543;SDS011;17996;51.056;3.656;2022-11-27T10:42:36;12.75;;;6.90;;
27543;SDS011;17996;51.056;3.656;2022-11-27T10:48:18;10.82;;;6.18;;
27543;SDS011;17996;51.056;3.656;2022-11-27T10:50:47;15.05;;;6.55;;
27543;SDS011;17996;51.056;3.656;2022-11-27T10:53:15;12.73;;;6.40;;
27543;SDS011;17996;51.056;3.656;2022-11-27T11:01:07;14.40;;;6.60;;
27543;SDS011;17996;51.056;3.656;2022-11-27T11:03:38;13.45;;;7.35;;
27543;SDS011;17996;51.056;3.656;2022-11-27T11:06:11;14.98;;;7.22;;
27543;SDS011;17996;51.056;3.656;2022-11-27T11:12:05;15.73;;;7.47;;
27543;SDS011;17996;51.056;3.656;2022-11-27T11:14:32;15.52;;;7.88;;
27543;SDS011;17996;51.056;3.656;2022-11-27T11:16:58;11.85;;;7.22;;
27543;SDS011;17996;51.056;3.656;2022-11-27T11:19:31;14.95;;;7.03;;
27543;SDS011;17996;51.056;3.656;2022-11-27T11:21:58;20.85;;;6.38;;
27543;SDS011;17996;51.056;3.656;2022-11-27T11:24:29;12.43;;;6.70;;
27543;SDS011;17996;51.056;3.656;2022-11-27T11:27:11;13.77;;;6.22;;
27543;SDS011;17996;51.056;3.656;2022-11-27T11:32:22;13.57;;;6.40;;
27543;SDS011;17996;51.056;3.656;2022-11-27T11:34:54;11.23;;;6.63;;
27543;SDS011;17996;51.056;3.656;2022-11-27T11:39:54;12.98;;;6.45;;
27543;SDS011;17996;51.056;3.656;2022-11-27T11:42:28;17.90;;;7.28;;
27543;SDS011;17996;51.056;3.656;2022-11-27T11:47:44;17.10;;;6.55;;
27543;SDS011;17996;51.056;3.656;2022-11-27T11:50:11;15.27;;;7.18;;
27543;SDS011;17996;51.056;3.656;2022-11-27T11:53:42;10.75;;;6.10;;
27543;SDS011;17996;51.056;3.656;2022-11-27T11:55:44;14.43;;;6.18;;
27543;SDS011;17996;51.056;3.656;2022-11-27T12:04:13;14.50;;;6.63;;
27543;SDS011;17996;51.056;3.656;2022-11-27T12:06:59;16.20;;;6.13;;
27543;SDS011;17996;51.056;3.656;2022-11-27T12:10:04;16.77;;;6.78;;
27543;SDS011;17996;51.056;3.656;2022-11-27T12:13:06;13.13;;;6.05;;
27543;SDS011;17996;51.056;3.656;2022-11-27T12:23:52;14.52;;;7.15;;
27543;SDS011;17996;51.056;3.656;2022-11-27T12:35:38;13.53;;;6.33;;
27543;SDS011;17996;51.056;3.656;2022-11-27T12:43:51;16.60;;;6.28;;
27543;SDS011;17996;51.056;3.656;2022-11-27T12:49:09;10.82;;;5.65;;
27543;SDS011;17996;51.056;3.656;2022-11-27T12:51:47;12.93;;;5.70;;
27543;SDS011;17996;51.056;3.656;2022-11-27T12:54:24;12.43;;;6.22;;
27543;SDS011;17996;51.056;3.656;2022-11-27T12:56:56;13.38;;;6.57;;
27543;SDS011;17996;51.056;3.656;2022-11-27T12:59:40;13.27;;;6.35;;
27543;SDS011;17996;51.056;3.656;2022-11-27T13:02:24;10.38;;;5.65;;
27543;SDS011;17996;51.056;3.656;2022-11-27T13:05:00;9.35;;;6.15;;
27543;SDS011;17996;51.056;3.656;2022-11-27T13:16:07;13.05;;;6.78;;
27543;SDS011;17996;51.056;3.656;2022-11-27T13:18:40;14.40;;;7.30;;
27543;SDS011;17996;51.056;3.656;2022-11-27T13:21:29;13.30;;;7.15;;
27543;SDS011;17996;51.056;3.656;2022-11-27T13:24:00;22.10;;;8.95;;
27543;SDS011;17996;51.056;3.656;2022-11-27T13:26:31;17.00;;;9.15;;
27543;SDS011;17996;51.056;3.656;2022-11-27T13:28:59;15.82;;;7.40;;
27543;SDS011;17996;51.056;3.656;2022-11-27T13:31:28;14.75;;;6.85;;
27543;SDS011;17996;51.056;3.656;2022-11-27T13:33:57;18.60;;;7.72;;
27543;SDS011;17996;51.056;3.656;2022-11-27T13:36:26;14.55;;;7.85;;
27543;SDS011;17996;51.056;3.656;2022-11-27T13:39:26;14.85;;;7.78;;
27543;SDS011;17996;51.056;3.656;2022-11-27T13:44:27;13.32;;;7.60;;
27543;SDS011;17996;51.056;3.656;2022-11-27T13:46:55;11.15;;;7.57;;
27543;SDS011;17996;51.056;3.656;2022-11-27T13:49:29;16.52;;;8.02;;
27543;SDS011;17996;51.056;3.656;2022-11-27T13:52:03;14.07;;;8.45;;
27543;SDS011;17996;51.056;3.656;2022-11-27T13:54:35;15.82;;;8.20;;
27543;SDS011;17996;51.056;3.656;2022-11-27T13:57:14;14.13;;;8.50;;
27543;SDS011;17996;51.056;3.656;2022-11-27T13:59:53;17.38;;;10.50;;
27543;SDS011;17996;51.056;3.656;2022-11-27T14:02:21;20.55;;;11.73;;
27543;SDS011;17996;51.056;3.656;2022-11-27T14:04:48;19.17;;;10.23;;
27543;SDS011;17996;51.056;3.656;2022-11-27T14:07:15;19.65;;;10.68;;
27543;SDS011;17996;51.056;3.656;2022-11-27T14:09:44;25.38;;;15.88;;
27543;SDS011;17996;51.056;3.656;2022-11-27T14:17:26;17.15;;;7.75;;
27543;SDS011;17996;51.056;3.656;2022-11-27T14:20:17;13.45;;;7.05;;
27543;SDS011;17996;51.056;3.656;2022-11-27T14:22:50;13.00;;;7.30;;
27543;SDS011;17996;51.056;3.656;2022-11-27T14:25:19;15.00;;;7.55;;
27543;SDS011;17996;51.056;3.656;2022-11-27T14:27:58;15.75;;;9.65;;
27543;SDS011;17996;51.056;3.656;2022-11-27T14:30:32;18.67;;;11.18;;
27543;SDS011;17996;51.056;3.656;2022-11-27T14:33:21;15.93;;;9.30;;
27543;SDS011;17996;51.056;3.656;2022-11-27T14:35:58;18.48;;;11.25;;
27543;SDS011;17996;51.056;3.656;2022-11-27T14:38:26;24.27;;;14.20;;
27543;SDS011;17996;51.056;3.656;2022-11-27T14:40:54;19.77;;;7.88;;
27543;SDS011;17996;51.056;3.656;2022-11-27T14:43:35;10.50;;;7.00;;
27543;SDS011;17996;51.056;3.656;2022-11-27T14:46:01;10.43;;;7.20;;
27543;SDS011;17996;51.056;3.656;2022-11-27T14:48:44;11.77;;;6.82;;
27543;SDS011;17996;51.056;3.656;2022-11-27T14:51:16;16.60;;;7.15;;
27543;SDS011;17996;51.056;3.656;2022-11-27T14:53:45;14.57;;;7.55;;
27543;SDS011;17996;51.056;3.656;2022-11-27T14:56:11;16.63;;;8.27;;
27543;SDS011;17996;51.056;3.656;2022-11-27T14:58:47;18.77;;;10.07;;
27543;SDS011;17996;51.056;3.656;2022-11-27T15:01:24;16.88;;;9.65;;
27543;SDS011;17996;51.056;3.656;2022-11-27T15:06:26;14.43;;;9.70;;
27543;SDS011;17996;51.056;3.656;2022-11-27T15:08:56;15.27;;;9.55;;
27543;SDS011;17996;51.056;3.656;2022-11-27T15:11:22;18.10;;;9.20;;
27543;SDS011;17996;51.056;3.656;2022-11-27T15:13:48;12.70;;;8.23;;
27543;SDS011;17996;51.056;3.656;2022-11-27T15:16:20;12.07;;;6.97;;
27543;SDS011;17996;51.056;3.656;2022-11-27T15:18:59;15.10;;;8.52;;
27543;SDS011;17996;51.056;3.656;2022-11-27T15:21:28;15.27;;;8.30;;
27543;SDS011;17996;51.056;3.656;2022-11-27T15:23:58;21.30;;;9.38;;
27543;SDS011;17996;51.056;3.656;2022-11-27T15:26:34;22.50;;;12.38;;
27543;SDS011;17996;51.056;3.656;2022-11-27T15:29:22;19.33;;;10.63;;
27543;SDS011;17996;51.056;3.656;2022-11-27T15:31:56;11.75;;;7.65;;
27543;SDS011;17996;51.056;3.656;2022-11-27T15:34:22;13.48;;;7.13;;
27543;SDS011;17996;51.056;3.656;2022-11-27T15:36:58;12.60;;;7.53;;
27543;SDS011;17996;51.056;3.656;2022-11-27T15:42:09;12.73;;;8.10;;
27543;SDS011;17996;51.056;3.656;2022-11-27T15:44:35;12.25;;;7.20;;
27543;SDS011;17996;51.056;3.656;2022-11-27T15:47:01;12.65;;;7.00;;
27543;SDS011;17996;51.056;3.656;2022-11-27T15:49:28;16.70;;;8.07;;
27543;SDS011;17996;51.056;3.656;2022-11-27T15:51:54;10.60;;;7.35;;
27543;SDS011;17996;51.056;3.656;2022-11-27T15:54:21;14.05;;;7.50;;
27543;SDS011;17996;51.056;3.656;2022-11-27T15:56:47;17.88;;;7.97;;
27543;SDS011;17996;51.056;3.656;2022-11-27T15:59:13;16.45;;;7.78;;
27543;SDS011;17996;51.056;3.656;2022-11-27T16:01:40;9.70;;;6.75;;
27543;SDS011;17996;51.056;3.656;2022-11-27T16:04:07;10.57;;;6.65;;
27543;SDS011;17996;51.056;3.656;2022-11-27T16:06:35;13.45;;;8.52;;
27543;SDS011;17996;51.056;3.656;2022-11-27T16:09:03;15.82;;;8.85;;
27543;SDS011;17996;51.056;3.656;2022-11-27T16:11:29;15.77;;;8.57;;
27543;SDS011;17996;51.056;3.656;2022-11-27T16:13:55;16.15;;;8.70;;
27543;SDS011;17996;51.056;3.656;2022-11-27T16:16:21;16.05;;;9.13;;
27543;SDS011;17996;51.056;3.656;2022-11-27T16:18:47;14.85;;;8.13;;
27543;SDS011;17996;51.056;3.656;2022-11-27T16:21:13;21.65;;;8.57;;
27543;SDS011;17996;51.056;3.656;2022-11-27T16:23:40;16.00;;;8.02;;
27543;SDS011;17996;51.056;3.656;2022-11-27T16:26:06;12.75;;;7.20;;
27543;SDS011;17996;51.056;3.656;2022-11-27T16:28:34;9.95;;;6.18;;
27543;SDS011;17996;51.056;3.656;2022-11-27T16:31:02;16.02;;;8.43;;
27543;SDS011;17996;51.056;3.656;2022-11-27T16:33:32;14.60;;;9.32;;
27543;SDS011;17996;51.056;3.656;2022-11-27T16:36:31;15.90;;;8.70;;
27543;SDS011;17996;51.056;3.656;2022-11-27T16:38:50;10.02;;;7.13;;
27543;SDS011;17996;51.056;3.656;2022-11-27T16:41:18;15.60;;;9.73;;
27543;SDS011;17996;51.056;3.656;2022-11-27T16:43:45;15.27;;;9.52;;
27543;SDS011;17996;51.056;3.656;2022-11-27T16:46:13;14.20;;;9.40;;
27543;SDS011;17996;51.056;3.656;2022-11-27T16:48:40;13.77;;;9.38;;
27543;SDS011;17996;51.056;3.656;2022-11-27T16:51:09;17.10;;;12.05;;
27543;SDS011;17996;51.056;3.656;2022-11-27T16:53:37;15.60;;;10.80;;
27543;SDS011;17996;51.056;3.656;2022-11-27T16:56:04;15.45;;;10.38;;
27543;SDS011;17996;51.056;3.656;2022-11-27T16:58:32;14.95;;;9.85;;
27543;SDS011;17996;51.056;3.656;2022-11-27T17:01:05;14.90;;;9.52;;
27543;SDS011;17996;51.056;3.656;2022-11-27T17:03:32;13.20;;;8.15;;
27543;SDS011;17996;51.056;3.656;2022-11-27T17:05:59;12.65;;;8.00;;
27543;SDS011;17996;51.056;3.656;2022-11-27T17:08:25;13.88;;;8.80;;
27543;SDS011;17996;51.056;3.656;2022-11-27T17:10:51;12.25;;;7.40;;
27543;SDS011;17996;51.056;3.656;2022-11-27T17:13:16;12.32;;;8.35;;
27543;SDS011;17996;51.056;3.656;2022-11-27T17:15:43;15.25;;;7.90;;
27543;SDS011;17996;51.056;3.656;2022-11-27T17:18:08;13.57;;;7.97;;